sensor_id;sensor_type;location;lat;lon;timestamp;temperature;humidity
24091;DHT22;12272;52.426;17.100;2022-12-07T00:02:20;11.70;99.90
24091;DHT22;12272;52.426;17.100;2022-12-07T00:07:23;12.40;99.90
24091;DHT22;12272;52.426;17.100;2022-12-07T00:12:29;12.60;99.90
24091;DHT22;12272;52.426;17.100;2022-12-07T00:17:31;13.30;99.90
24091;DHT22;12272;52.426;17.100;2022-12-07T00:22:35;13.20;99.90
24091;DHT22;12272;52.426;17.100;2022-12-07T00:27:38;12.90;99.90
24091;DHT22;12272;52.426;17.100;2022-12-07T00:32:40;13.10;99.90
24091;DHT22;12272;52.426;17.100;2022-12-07T00:37:43;13.00;99.90
24091;DHT22;12272;52.426;17.100;2022-12-07T00:42:45;13.30;99.90
24091;DHT22;12272;52.426;17.100;2022-12-07T00:47:47;14.00;99.90
24091;DHT22;12272;52.426;17.100;2022-12-07T00:52:50;13.60;99.90
24091;DHT22;12272;52.426;17.100;2022-12-07T00:57:52;13.60;99.90
24091;DHT22;12272;52.426;17.100;2022-12-07T01:02:54;13.50;99.90
24091;DHT22;12272;52.426;17.100;2022-12-07T01:07:57;13.40;99.90
24091;DHT22;12272;52.426;17.100;2022-12-07T01:13:00;13.80;99.90
24091;DHT22;12272;52.426;17.100;2022-12-07T01:18:02;13.80;99.90
24091;DHT22;12272;52.426;17.100;2022-12-07T01:23:05;13.70;99.90
24091;DHT22;12272;52.426;17.100;2022-12-07T01:28:07;13.80;99.90
24091;DHT22;12272;52.426;17.100;2022-12-07T01:33:09;14.30;99.90
24091;DHT22;12272;52.426;17.100;2022-12-07T01:38:12;13.70;99.90
24091;DHT22;12272;52.426;17.100;2022-12-07T01:43:18;13.10;99.90
24091;DHT22;12272;52.426;17.100;2022-12-07T01:48:26;13.60;99.90
24091;DHT22;12272;52.426;17.100;2022-12-07T01:53:30;13.30;99.90
24091;DHT22;12272;52.426;17.100;2022-12-07T01:58:34;12.30;99.90
24091;DHT22;12272;52.426;17.100;2022-12-07T02:03:40;12.40;99.90
24091;DHT22;12272;52.426;17.100;2022-12-07T02:08:43;12.20;99.90
24091;DHT22;12272;52.426;17.100;2022-12-07T02:13:46;12.20;99.90
24091;DHT22;12272;52.426;17.100;2022-12-07T02:29:27;11.80;99.90
24091;DHT22;12272;52.426;17.100;2022-12-07T02:34:47;12.00;99.90
24091;DHT22;12272;52.426;17.100;2022-12-07T02:39:59;12.70;99.90
24091;DHT22;12272;52.426;17.100;2022-12-07T02:45:05;13.50;99.90
24091;DHT22;12272;52.426;17.100;2022-12-07T02:50:09;12.90;99.90
24091;DHT22;12272;52.426;17.100;2022-12-07T02:55:13;12.50;99.90
24091;DHT22;12272;52.426;17.100;2022-12-07T03:00:20;12.30;99.90
24091;DHT22;12272;52.426;17.100;2022-12-07T03:10:56;12.30;99.90
24091;DHT22;12272;52.426;17.100;2022-12-07T03:16:27;12.50;99.90
24091;DHT22;12272;52.426;17.100;2022-12-07T03:21:39;12.30;99.90
24091;DHT22;12272;52.426;17.100;2022-12-07T03:26:48;12.50;99.90
24091;DHT22;12272;52.426;17.100;2022-12-07T03:32:05;12.10;99.90
24091;DHT22;12272;52.426;17.100;2022-12-07T03:37:28;12.30;99.90
24091;DHT22;12272;52.426;17.100;2022-12-07T03:42:32;12.10;99.90
24091;DHT22;12272;52.426;17.100;2022-12-07T03:52:53;11.80;99.90
24091;DHT22;12272;52.426;17.100;2022-12-07T03:58:01;12.10;99.90
24091;DHT22;12272;52.426;17.100;2022-12-07T04:03:04;11.80;99.90
24091;DHT22;12272;52.426;17.100;2022-12-07T04:08:07;11.80;99.90
24091;DHT22;12272;52.426;17.100;2022-12-07T04:13:09;11.60;99.90
24091;DHT22;12272;52.426;17.100;2022-12-07T04:18:12;11.60;99.90
24091;DHT22;12272;52.426;17.100;2022-12-07T04:23:14;11.70;99.90
24091;DHT22;12272;52.426;17.100;2022-12-07T04:28:17;11.90;99.90
24091;DHT22;12272;52.426;17.100;2022-12-07T04:33:19;12.20;99.90
24091;DHT22;12272;52.426;17.100;2022-12-07T04:38:21;11.60;99.90
24091;DHT22;12272;52.426;17.100;2022-12-07T04:43:24;11.90;99.90
24091;DHT22;12272;52.426;17.100;2022-12-07T04:48:26;11.60;99.90
24091;DHT22;12272;52.426;17.100;2022-12-07T04:53:29;11.10;99.90
24091;DHT22;12272;52.426;17.100;2022-12-07T04:58:32;12.00;99.90
24091;DHT22;12272;52.426;17.100;2022-12-07T05:03:35;12.10;99.90
24091;DHT22;12272;52.426;17.100;2022-12-07T05:08:38;11.70;99.90
24091;DHT22;12272;52.426;17.100;2022-12-07T05:13:41;12.30;99.90
24091;DHT22;12272;52.426;17.100;2022-12-07T05:18:43;11.40;99.90
24091;DHT22;12272;52.426;17.100;2022-12-07T05:23:46;11.50;99.90
24091;DHT22;12272;52.426;17.100;2022-12-07T05:28:53;11.40;99.90
24091;DHT22;12272;52.426;17.100;2022-12-07T05:33:56;11.80;99.90
24091;DHT22;12272;52.426;17.100;2022-12-07T05:38:58;11.60;99.90
24091;DHT22;12272;52.426;17.100;2022-12-07T05:44:01;11.20;99.90
24091;DHT22;12272;52.426;17.100;2022-12-07T05:49:04;11.90;99.90
24091;DHT22;12272;52.426;17.100;2022-12-07T05:54:06;11.90;99.90
24091;DHT22;12272;52.426;17.100;2022-12-07T05:59:09;11.70;99.90
24091;DHT22;12272;52.426;17.100;2022-12-07T06:04:29;11.50;99.90
24091;DHT22;12272;52.426;17.100;2022-12-07T06:09:33;11.40;99.90
24091;DHT22;12272;52.426;17.100;2022-12-07T06:14:36;11.50;99.90
24091;DHT22;12272;52.426;17.100;2022-12-07T06:19:39;11.70;99.90
24091;DHT22;12272;52.426;17.100;2022-12-07T06:24:42;12.60;99.90
24091;DHT22;12272;52.426;17.100;2022-12-07T06:29:44;12.30;99.90
24091;DHT22;12272;52.426;17.100;2022-12-07T06:34:47;12.30;99.90
24091;DHT22;12272;52.426;17.100;2022-12-07T06:39:49;13.50;99.90
24091;DHT22;12272;52.426;17.100;2022-12-07T06:44:52;13.00;99.90
24091;DHT22;12272;52.426;17.100;2022-12-07T06:49:54;13.10;99.90
24091;DHT22;12272;52.426;17.100;2022-12-07T06:54:56;13.00;99.90
24091;DHT22;12272;52.426;17.100;2022-12-07T06:59:59;13.20;99.90
24091;DHT22;12272;52.426;17.100;2022-12-07T07:05:03;13.10;93.70
24091;DHT22;12272;52.426;17.100;2022-12-07T07:10:06;12.30;96.40
24091;DHT22;12272;52.426;17.100;2022-12-07T07:15:08;11.80;98.60
24091;DHT22;12272;52.426;17.100;2022-12-07T07:20:12;11.40;98.90
24091;DHT22;12272;52.426;17.100;2022-12-07T07:25:15;11.30;98.20
24091;DHT22;12272;52.426;17.100;2022-12-07T07:30:17;11.90;99.70
24091;DHT22;12272;52.426;17.100;2022-12-07T07:35:20;12.40;98.10
24091;DHT22;12272;52.426;17.100;2022-12-07T07:40:23;12.10;96.60
24091;DHT22;12272;52.426;17.100;2022-12-07T07:45:26;12.50;99.90
24091;DHT22;12272;52.426;17.100;2022-12-07T07:50:29;11.40;97.30
24091;DHT22;12272;52.426;17.100;2022-12-07T07:55:31;10.50;99.90
24091;DHT22;12272;52.426;17.100;2022-12-07T08:00:34;10.80;99.90
24091;DHT22;12272;52.426;17.100;2022-12-07T08:05:37;12.20;99.90
24091;DHT22;12272;52.426;17.100;2022-12-07T08:10:39;12.20;99.90
24091;DHT22;12272;52.426;17.100;2022-12-07T08:15:46;12.40;99.90
24091;DHT22;12272;52.426;17.100;2022-12-07T08:20:49;12.10;99.90
24091;DHT22;12272;52.426;17.100;2022-12-07T08:25:52;12.40;99.90
24091;DHT22;12272;52.426;17.100;2022-12-07T08:31:06;13.20;99.90
24091;DHT22;12272;52.426;17.100;2022-12-07T08:36:10;13.30;99.90
24091;DHT22;12272;52.426;17.100;2022-12-07T08:41:13;12.80;97.90
24091;DHT22;12272;52.426;17.100;2022-12-07T08:46:46;13.00;99.90
24091;DHT22;12272;52.426;17.100;2022-12-07T08:51:50;12.90;99.60
24091;DHT22;12272;52.426;17.100;2022-12-07T08:56:54;13.00;99.90
24091;DHT22;12272;52.426;17.100;2022-12-07T09:02:01;13.20;99.90
24091;DHT22;12272;52.426;17.100;2022-12-07T09:07:03;12.80;99.90
24091;DHT22;12272;52.426;17.100;2022-12-07T09:12:06;13.20;99.90
24091;DHT22;12272;52.426;17.100;2022-12-07T09:17:10;12.00;96.20
24091;DHT22;12272;52.426;17.100;2022-12-07T09:22:13;11.20;96.70
24091;DHT22;12272;52.426;17.100;2022-12-07T09:27:15;11.70;99.90
24091;DHT22;12272;52.426;17.100;2022-12-07T09:32:19;11.30;99.90
24091;DHT22;12272;52.426;17.100;2022-12-07T09:37:22;11.20;99.90
24091;DHT22;12272;52.426;17.100;2022-12-07T09:47:30;10.50;99.90
24091;DHT22;12272;52.426;17.100;2022-12-07T09:52:32;10.50;99.90
24091;DHT22;12272;52.426;17.100;2022-12-07T09:57:40;10.50;99.90
24091;DHT22;12272;52.426;17.100;2022-12-07T10:02:50;11.20;99.90
24091;DHT22;12272;52.426;17.100;2022-12-07T10:07:55;11.60;99.90
24091;DHT22;12272;52.426;17.100;2022-12-07T10:13:01;11.90;99.90
24091;DHT22;12272;52.426;17.100;2022-12-07T10:18:03;12.00;99.90
24091;DHT22;12272;52.426;17.100;2022-12-07T10:23:14;11.50;99.90
24091;DHT22;12272;52.426;17.100;2022-12-07T10:28:18;12.80;99.90
24091;DHT22;12272;52.426;17.100;2022-12-07T10:33:30;12.90;99.90
24091;DHT22;12272;52.426;17.100;2022-12-07T10:38:33;12.00;99.90
24091;DHT22;12272;52.426;17.100;2022-12-07T10:43:35;13.00;99.90
24091;DHT22;12272;52.426;17.100;2022-12-07T11:10:26;12.40;99.90
24091;DHT22;12272;52.426;17.100;2022-12-07T11:27:13;12.30;99.90
24091;DHT22;12272;52.426;17.100;2022-12-07T11:37:37;12.70;99.90
24091;DHT22;12272;52.426;17.100;2022-12-07T11:48:20;12.30;99.90
24091;DHT22;12272;52.426;17.100;2022-12-07T11:53:54;13.40;99.90
24091;DHT22;12272;52.426;17.100;2022-12-07T11:59:16;13.50;99.90
24091;DHT22;12272;52.426;17.100;2022-12-07T12:04:55;13.00;99.70
24091;DHT22;12272;52.426;17.100;2022-12-07T12:10:29;13.10;99.90
24091;DHT22;12272;52.426;17.100;2022-12-07T12:15:47;13.20;97.50
24091;DHT22;12272;52.426;17.100;2022-12-07T12:21:16;13.20;99.90
24091;DHT22;12272;52.426;17.100;2022-12-07T12:26:26;13.50;99.90
24091;DHT22;12272;52.426;17.100;2022-12-07T12:31:38;12.80;98.30
24091;DHT22;12272;52.426;17.100;2022-12-07T12:46:55;13.30;98.00
24091;DHT22;12272;52.426;17.100;2022-12-07T12:57:25;13.30;99.90
24091;DHT22;12272;52.426;17.100;2022-12-07T13:23:51;13.10;99.90
24091;DHT22;12272;52.426;17.100;2022-12-07T13:29:16;13.50;99.90
24091;DHT22;12272;52.426;17.100;2022-12-07T13:34:39;13.60;99.80
24091;DHT22;12272;52.426;17.100;2022-12-07T13:39:56;14.00;99.90
24091;DHT22;12272;52.426;17.100;2022-12-07T13:45:00;14.10;99.50
24091;DHT22;12272;52.426;17.100;2022-12-07T13:55:25;13.20;98.30
24091;DHT22;12272;52.426;17.100;2022-12-07T14:00:28;13.30;95.30
24091;DHT22;12272;52.426;17.100;2022-12-07T14:05:35;14.10;99.90
24091;DHT22;12272;52.426;17.100;2022-12-07T14:15:51;12.90;81.00
24091;DHT22;12272;52.426;17.100;2022-12-07T14:21:21;12.30;80.90
24091;DHT22;12272;52.426;17.100;2022-12-07T14:26:25;11.70;90.40
24091;DHT22;12272;52.426;17.100;2022-12-07T14:31:27;11.30;91.10
24091;DHT22;12272;52.426;17.100;2022-12-07T14:36:32;11.40;93.70
24091;DHT22;12272;52.426;17.100;2022-12-07T14:41:35;12.00;98.20
24091;DHT22;12272;52.426;17.100;2022-12-07T14:46:55;12.20;95.80
24091;DHT22;12272;52.426;17.100;2022-12-07T14:52:25;12.50;98.60
24091;DHT22;12272;52.426;17.100;2022-12-07T14:57:48;12.40;99.90
24091;DHT22;12272;52.426;17.100;2022-12-07T15:02:52;12.30;99.90
24091;DHT22;12272;52.426;17.100;2022-12-07T15:07:54;11.90;99.90
24091;DHT22;12272;52.426;17.100;2022-12-07T15:12:58;12.00;99.90
24091;DHT22;12272;52.426;17.100;2022-12-07T15:18:20;12.20;99.90
24091;DHT22;12272;52.426;17.100;2022-12-07T15:23:23;12.50;99.90
24091;DHT22;12272;52.426;17.100;2022-12-07T15:28:25;12.90;99.90
24091;DHT22;12272;52.426;17.100;2022-12-07T15:33:28;13.20;99.90
24091;DHT22;12272;52.426;17.100;2022-12-07T15:38:31;12.90;99.90
24091;DHT22;12272;52.426;17.100;2022-12-07T15:43:53;12.70;99.90
24091;DHT22;12272;52.426;17.100;2022-12-07T15:49:16;13.00;99.90
24091;DHT22;12272;52.426;17.100;2022-12-07T15:54:22;12.90;99.90
24091;DHT22;12272;52.426;17.100;2022-12-07T15:59:26;13.60;99.90
24091;DHT22;12272;52.426;17.100;2022-12-07T16:04:29;12.30;91.30
24091;DHT22;12272;52.426;17.100;2022-12-07T16:09:32;12.20;94.10
24091;DHT22;12272;52.426;17.100;2022-12-07T16:14:34;12.10;94.20
24091;DHT22;12272;52.426;17.100;2022-12-07T16:19:37;12.00;93.50
24091;DHT22;12272;52.426;17.100;2022-12-07T16:24:40;12.50;94.50
24091;DHT22;12272;52.426;17.100;2022-12-07T16:29:42;12.30;93.50
24091;DHT22;12272;52.426;17.100;2022-12-07T16:34:45;13.00;95.40
24091;DHT22;12272;52.426;17.100;2022-12-07T16:39:47;12.90;95.70
24091;DHT22;12272;52.426;17.100;2022-12-07T16:44:50;12.80;93.80
24091;DHT22;12272;52.426;17.100;2022-12-07T16:49:52;13.10;97.80
24091;DHT22;12272;52.426;17.100;2022-12-07T16:54:55;12.90;97.80
24091;DHT22;12272;52.426;17.100;2022-12-07T16:59:57;12.90;83.10
24091;DHT22;12272;52.426;17.100;2022-12-07T17:04:59;7.10;90.90
24091;DHT22;12272;52.426;17.100;2022-12-07T17:10:03;10.00;99.90
24091;DHT22;12272;52.426;17.100;2022-12-07T17:15:06;11.10;99.00
24091;DHT22;12272;52.426;17.100;2022-12-07T17:20:22;11.10;99.90
24091;DHT22;12272;52.426;17.100;2022-12-07T17:25:25;11.60;99.90
24091;DHT22;12272;52.426;17.100;2022-12-07T17:30:28;11.60;99.90
24091;DHT22;12272;52.426;17.100;2022-12-07T17:35:30;11.90;99.90
24091;DHT22;12272;52.426;17.100;2022-12-07T17:40:32;11.20;99.90
24091;DHT22;12272;52.426;17.100;2022-12-07T17:45:36;11.50;99.90
24091;DHT22;12272;52.426;17.100;2022-12-07T17:50:39;11.50;99.90
24091;DHT22;12272;52.426;17.100;2022-12-07T17:56:00;10.90;99.90
24091;DHT22;12272;52.426;17.100;2022-12-07T18:01:22;9.30;89.00
24091;DHT22;12272;52.426;17.100;2022-12-07T18:06:27;10.20;99.90
24091;DHT22;12272;52.426;17.100;2022-12-07T18:11:29;10.00;99.90
24091;DHT22;12272;52.426;17.100;2022-12-07T18:16:33;8.40;97.90
24091;DHT22;12272;52.426;17.100;2022-12-07T18:21:36;8.70;99.90
24091;DHT22;12272;52.426;17.100;2022-12-07T18:26:40;8.10;99.90
24091;DHT22;12272;52.426;17.100;2022-12-07T18:31:44;9.20;99.90
24091;DHT22;12272;52.426;17.100;2022-12-07T18:36:48;9.10;99.90
24091;DHT22;12272;52.426;17.100;2022-12-07T18:41:51;9.60;99.90
24091;DHT22;12272;52.426;17.100;2022-12-07T18:46:54;7.10;95.30
24091;DHT22;12272;52.426;17.100;2022-12-07T18:51:57;4.50;99.90
24091;DHT22;12272;52.426;17.100;2022-12-07T18:56:59;3.00;99.90
24091;DHT22;12272;52.426;17.100;2022-12-07T19:07:04;1.80;99.90
24091;DHT22;12272;52.426;17.100;2022-12-07T19:12:12;1.90;99.90
24091;DHT22;12272;52.426;17.100;2022-12-07T19:22:20;2.90;99.90
24091;DHT22;12272;52.426;17.100;2022-12-07T19:27:23;7.50;99.90
24091;DHT22;12272;52.426;17.100;2022-12-07T19:32:26;10.10;99.90
24091;DHT22;12272;52.426;17.100;2022-12-07T19:37:29;11.20;99.90
24091;DHT22;12272;52.426;17.100;2022-12-07T19:42:32;11.30;99.90
24091;DHT22;12272;52.426;17.100;2022-12-07T19:47:37;11.50;99.90
24091;DHT22;12272;52.426;17.100;2022-12-07T19:52:39;12.10;99.90
24091;DHT22;12272;52.426;17.100;2022-12-07T19:57:41;12.20;99.90
24091;DHT22;12272;52.426;17.100;2022-12-07T20:02:44;8.60;85.50
24091;DHT22;12272;52.426;17.100;2022-12-07T20:07:47;4.70;99.90
24091;DHT22;12272;52.426;17.100;2022-12-07T20:18:20;2.60;99.90
24091;DHT22;12272;52.426;17.100;2022-12-07T20:23:24;1.50;99.90
24091;DHT22;12272;52.426;17.100;2022-12-07T20:33:37;0.60;99.90
24091;DHT22;12272;52.426;17.100;2022-12-07T20:38:40;0.50;99.90
24091;DHT22;12272;52.426;17.100;2022-12-07T20:43:43;0.30;99.90
24091;DHT22;12272;52.426;17.100;2022-12-07T20:48:45;0.30;99.90
24091;DHT22;12272;52.426;17.100;2022-12-07T20:53:48;0.40;99.90
24091;DHT22;12272;52.426;17.100;2022-12-07T20:58:50;0.30;99.90
24091;DHT22;12272;52.426;17.100;2022-12-07T21:03:54;0.20;99.90
24091;DHT22;12272;52.426;17.100;2022-12-07T21:08:58;0.20;99.90
24091;DHT22;12272;52.426;17.100;2022-12-07T21:19:04;0.30;99.90
24091;DHT22;12272;52.426;17.100;2022-12-07T21:24:07;0.20;99.90
24091;DHT22;12272;52.426;17.100;2022-12-07T21:29:09;0.60;99.90
24091;DHT22;12272;52.426;17.100;2022-12-07T21:34:12;2.60;99.90
24091;DHT22;12272;52.426;17.100;2022-12-07T21:39:14;2.50;99.90
24091;DHT22;12272;52.426;17.100;2022-12-07T21:44:16;2.00;99.90
24091;DHT22;12272;52.426;17.100;2022-12-07T21:49:19;1.60;99.90
24091;DHT22;12272;52.426;17.100;2022-12-07T21:54:21;3.10;99.90
24091;DHT22;12272;52.426;17.100;2022-12-07T21:59:27;5.20;99.90
24091;DHT22;12272;52.426;17.100;2022-12-07T22:04:30;4.60;99.90
24091;DHT22;12272;52.426;17.100;2022-12-07T22:09:32;3.20;99.90
24091;DHT22;12272;52.426;17.100;2022-12-07T22:14:35;2.60;99.90
24091;DHT22;12272;52.426;17.100;2022-12-07T22:19:56;1.80;99.90
24091;DHT22;12272;52.426;17.100;2022-12-07T22:24:59;1.40;99.90
24091;DHT22;12272;52.426;17.100;2022-12-07T22:30:02;0.90;99.90
24091;DHT22;12272;52.426;17.100;2022-12-07T22:35:04;0.80;99.90
24091;DHT22;12272;52.426;17.100;2022-12-07T22:40:08;1.00;99.90
24091;DHT22;12272;52.426;17.100;2022-12-07T22:45:10;0.80;99.90
24091;DHT22;12272;52.426;17.100;2022-12-07T22:50:13;1.00;99.90
24091;DHT22;12272;52.426;17.100;2022-12-07T22:55:15;1.20;99.90
24091;DHT22;12272;52.426;17.100;2022-12-07T23:00:18;1.10;99.90
24091;DHT22;12272;52.426;17.100;2022-12-07T23:05:20;1.30;99.90
24091;DHT22;12272;52.426;17.100;2022-12-07T23:10:23;7.70;99.90
24091;DHT22;12272;52.426;17.100;2022-12-07T23:15:25;10.40;99.90
24091;DHT22;12272;52.426;17.100;2022-12-07T23:20:28;12.20;99.90
24091;DHT22;12272;52.426;17.100;2022-12-07T23:25:31;13.30;99.90
24091;DHT22;12272;52.426;17.100;2022-12-07T23:30:34;13.30;99.90
24091;DHT22;12272;52.426;17.100;2022-12-07T23:35:36;14.00;99.90
24091;DHT22;12272;52.426;17.100;2022-12-07T23:40:39;13.90;99.90
24091;DHT22;12272;52.426;17.100;2022-12-07T23:45:44;14.20;99.90
24091;DHT22;12272;52.426;17.100;2022-12-07T23:50:47;14.50;99.90
24091;DHT22;12272;52.426;17.100;2022-12-07T23:55:50;14.20;99.90
